Time;durP1;ratioP1;P1;durP2;ratioP2;P2;SDS_P1;SDS_P2;PMS_P1;PMS_P2;Temp;Humidity;BMP_temperature;BMP_pressure;BME280_temperature;BME280_humidity;BME280_pressure;Samples;Min_cycle;Max_cycle;Signal;HPM_P1;HPM_P2
2021/08/13 00:00:57;;;;;;;8.40;6.72;;;16.90;99.90;;;;;;5056970;28;20131;-73
2021/08/13 00:03:23;;;;;;;8.68;7.57;;;17.00;99.90;;;;;;5079815;28;20653;-73
2021/08/13 00:05:49;;;;;;;9.43;7.53;;;17.00;99.90;;;;;;5046375;28;20450;-73
2021/08/13 00:08:15;;;;;;;9.02;8.10;;;16.90;99.90;;;;;;5053224;28;20036;-73
2021/08/13 00:10:41;;;;;;;8.25;7.40;;;16.90;99.90;;;;;;5075881;28;20459;-73
2021/08/13 00:13:06;;;;;;;11.20;7.22;;;16.90;99.90;;;;;;5070609;28;20040;-71
2021/08/13 00:15:32;;;;;;;9.65;7.85;;;16.90;99.90;;;;;;5070733;28;20415;-71
2021/08/13 00:17:58;;;;;;;11.70;8.13;;;16.90;99.90;;;;;;5047372;28;20037;-71
2021/08/13 00:20:24;;;;;;;9.30;7.40;;;16.80;99.90;;;;;;5071207;28;20392;-71
2021/08/13 00:22:51;;;;;;;10.07;8.65;;;16.80;99.90;;;;;;5059090;28;20043;-71
2021/08/13 00:25:17;;;;;;;10.68;7.90;;;16.80;99.90;;;;;;5070163;28;20082;-72
2021/08/13 00:27:43;;;;;;;8.95;6.90;;;16.80;99.90;;;;;;5052478;28;20526;-71
2021/08/13 00:30:10;;;;;;;8.20;7.25;;;16.70;99.90;;;;;;5072191;28;20083;-72
2021/08/13 00:32:36;;;;;;;15.65;9.05;;;16.60;99.90;;;;;;5075634;28;20751;-72
2021/08/13 00:35:06;;;;;;;10.18;8.45;;;16.60;99.90;;;;;;5064397;28;20048;-71
2021/08/13 00:37:32;;;;;;;10.30;9.23;;;16.50;99.90;;;;;;5068511;28;20040;-71
2021/08/13 00:39:58;;;;;;;12.25;9.88;;;16.50;99.90;;;;;;5068846;28;20040;-72
2021/08/13 00:42:25;;;;;;;10.68;9.57;;;16.50;99.90;;;;;;5066491;28;20561;-71
2021/08/13 00:44:51;;;;;;;10.63;9.57;;;16.40;99.90;;;;;;5070522;28;20122;-71
2021/08/13 00:47:17;;;;;;;13.10;10.48;;;16.40;99.90;;;;;;5071144;28;20043;-71
2021/08/13 00:49:42;;;;;;;11.55;9.65;;;16.40;99.90;;;;;;5035682;28;20044;-72
2021/08/13 00:52:12;;;;;;;10.88;9.77;;;16.40;99.90;;;;;;5063231;28;20494;-71
2021/08/13 00:54:39;;;;;;;13.68;10.82;;;16.30;99.90;;;;;;5073985;28;20043;-72
2021/08/13 00:57:05;;;;;;;11.98;10.10;;;16.30;99.90;;;;;;5078907;28;20049;-71
2021/08/13 00:59:34;;;;;;;14.98;12.18;;;16.30;99.90;;;;;;5073303;28;20082;-71
2021/08/13 01:02:01;;;;;;;9.88;8.77;;;16.30;99.90;;;;;;5045898;28;20043;-71
2021/08/13 01:04:27;;;;;;;12.07;10.73;;;16.20;99.90;;;;;;5078628;28;20060;-71
2021/08/13 01:06:53;;;;;;;12.60;11.30;;;16.20;99.90;;;;;;5056863;28;20564;-71
2021/08/13 01:09:19;;;;;;;12.02;10.13;;;16.20;99.90;;;;;;5070864;28;20043;-71
2021/08/13 01:11:58;;;;;;;12.77;9.30;;;16.20;99.90;;;;;;5068906;28;20036;-72
2021/08/13 01:14:37;;;;;;;10.43;8.90;;;16.20;99.90;;;;;;5072563;28;20397;-71
2021/08/13 01:17:08;;;;;;;14.40;10.63;;;16.10;99.90;;;;;;5058489;28;20059;-71
2021/08/13 01:19:48;;;;;;;14.80;11.00;;;16.00;99.90;;;;;;5071326;28;20289;-71
2021/08/13 01:22:22;;;;;;;13.95;11.77;;;16.00;99.90;;;;;;5071418;28;20051;-71
2021/08/13 01:24:48;;;;;;;11.90;9.95;;;16.10;99.90;;;;;;5072976;28;20051;-71
2021/08/13 01:27:23;;;;;;;12.68;8.63;;;16.00;99.90;;;;;;5069247;28;20177;-71
2021/08/13 01:30:01;;;;;;;11.20;10.05;;;16.00;99.90;;;;;;5075653;28;20040;-71
2021/08/13 01:32:52;;;;;;;12.10;9.23;;;16.00;99.90;;;;;;5068315;28;20045;-70
2021/08/13 01:35:26;;;;;;;11.45;8.98;;;16.00;99.90;;;;;;5071307;28;20047;-71
2021/08/13 01:37:58;;;;;;;15.38;10.90;;;15.90;99.90;;;;;;5074793;28;20043;-71
2021/08/13 01:40:26;;;;;;;11.82;10.45;;;15.90;99.90;;;;;;5081663;28;20086;-71
2021/08/13 01:42:54;;;;;;;12.48;10.05;;;15.90;99.90;;;;;;5073597;28;20032;-71
2021/08/13 01:45:35;;;;;;;16.65;12.25;;;15.90;99.90;;;;;;5056337;28;20158;-71
2021/08/13 01:48:06;;;;;;;13.52;11.32;;;15.90;99.90;;;;;;5064718;28;20483;-71
2021/08/13 01:50:31;;;;;;;12.75;10.98;;;15.80;99.90;;;;;;5077888;28;20044;-71
2021/08/13 01:52:59;;;;;;;19.70;15.07;;;15.80;99.90;;;;;;5067585;28;20036;-71
2021/08/13 01:55:26;;;;;;;15.23;11.65;;;15.80;99.90;;;;;;5076488;28;20482;-71
2021/08/13 01:57:52;;;;;;;16.83;12.95;;;15.80;99.90;;;;;;5074621;28;20089;-71
2021/08/13 02:00:20;;;;;;;11.38;9.80;;;15.90;99.90;;;;;;5077604;28;20064;-71
2021/08/13 02:02:47;;;;;;;9.65;7.90;;;15.90;99.90;;;;;;5080503;28;20081;-71
2021/08/13 02:05:17;;;;;;;9.18;8.15;;;15.80;99.90;;;;;;5084349;28;20089;-71
2021/08/13 02:07:44;;;;;;;;;;;15.70;99.90;;;;;;5073010;28;20040;-71
2021/08/13 02:10:11;;;;;;;11.38;8.20;;;15.70;99.90;;;;;;5078088;28;19920;-71
2021/08/13 02:12:38;;;;;;;11.15;8.02;;;15.70;99.90;;;;;;5075764;28;20051;-71
2021/08/13 02:15:12;;;;;;;11.73;9.70;;;15.70;99.90;;;;;;5057465;28;20051;-71
2021/08/13 02:17:46;;;;;;;11.85;9.57;;;15.70;99.90;;;;;;5083846;28;20032;-71
2021/08/13 02:20:15;;;;;;;13.50;10.73;;;15.70;99.90;;;;;;5080763;28;20498;-71
2021/08/13 02:22:41;;;;;;;14.53;12.17;;;15.70;99.90;;;;;;5084268;28;20399;-71
2021/08/13 02:25:11;;;;;;;26.45;17.23;;;15.70;99.90;;;;;;5062413;28;20712;-72
2021/08/13 02:27:37;;;;;;;15.27;12.80;;;15.70;99.90;;;;;;5082943;28;20055;-72
2021/08/13 02:30:05;;;;;;;25.27;18.95;;;15.70;99.90;;;;;;5078853;28;20039;-72
2021/08/13 02:32:31;;;;;;;13.82;12.32;;;15.70;99.90;;;;;;5082553;28;20036;-72
2021/08/13 02:34:58;;;;;;;14.70;13.05;;;15.70;99.90;;;;;;5081406;28;20031;-72
2021/08/13 02:37:35;;;;;;;14.52;11.75;;;15.70;99.90;;;;;;5061937;28;20048;-72
2021/08/13 02:40:31;;;;;;;8.27;7.47;;;15.70;99.90;;;;;;5084653;28;20044;-72
2021/08/13 02:43:03;;;;;;;9.43;7.78;;;15.60;99.90;;;;;;5079633;28;20135;-71
2021/08/13 02:45:32;;;;;;;6.65;5.93;;;15.60;99.90;;;;;;5083386;28;20047;-70
2021/08/13 02:48:00;;;;;;;9.50;8.23;;;15.40;99.90;;;;;;5064758;28;20101;-71
2021/08/13 02:50:28;;;;;;;11.48;10.15;;;15.50;99.90;;;;;;5084914;28;20166;-71
2021/08/13 02:53:14;;;;;;;10.85;9.13;;;15.50;99.90;;;;;;5081809;28;21404;-70
2021/08/13 02:55:45;;;;;;;11.65;10.13;;;15.40;99.90;;;;;;5074515;28;20810;-70
2021/08/13 02:58:17;;;;;;;13.93;12.20;;;15.40;99.90;;;;;;5077968;28;20055;-71
2021/08/13 03:00:44;;;;;;;12.75;11.10;;;15.40;99.90;;;;;;5080320;28;20490;-71
2021/08/13 03:03:12;;;;;;;10.82;9.63;;;15.40;99.90;;;;;;5082114;28;20044;-71
2021/08/13 03:05:46;;;;;;;10.50;8.85;;;15.40;99.90;;;;;;5076361;28;20036;-70
2021/08/13 03:08:15;;;;;;;13.43;9.90;;;15.40;99.90;;;;;;5082994;28;20048;-70
2021/08/13 03:10:42;;;;;;;11.38;10.18;;;15.30;99.90;;;;;;5075625;28;20522;-71
2021/08/13 03:13:11;;;;;;;12.23;10.70;;;15.30;99.90;;;;;;5079100;28;21257;-71
2021/08/13 03:15:41;;;;;;;21.38;16.33;;;15.30;99.90;;;;;;5081207;28;20089;-71
2021/08/13 03:18:11;;;;;;;18.08;14.77;;;15.40;99.90;;;;;;5078072;28;20040;-72
2021/08/13 03:20:39;;;;;;;19.95;16.33;;;15.40;99.90;;;;;;5079352;28;20047;-71
2021/08/13 03:23:09;;;;;;;13.65;12.25;;;15.40;99.90;;;;;;5075814;28;20046;-72
2021/08/13 03:25:35;;;;;;;;;;;15.40;99.90;;;;;;5064708;28;20044;-72
2021/08/13 03:28:03;;;;;;;18.50;15.70;;;15.40;99.90;;;;;;5075830;28;19920;-71
2021/08/13 03:30:38;;;;;;;21.30;17.63;;;15.50;99.90;;;;;;5078677;28;20123;-72
2021/08/13 03:33:12;;;;;;;20.02;17.05;;;15.50;99.90;;;;;;5077383;28;20037;-71
2021/08/13 03:35:39;;;;;;;25.40;21.15;;;15.60;99.90;;;;;;5068404;28;20048;-71
2021/08/13 03:38:06;;;;;;;25.00;19.92;;;15.60;99.90;;;;;;5072643;28;20123;-71
2021/08/13 03:40:32;;;;;;;21.58;18.30;;;15.70;99.90;;;;;;5073099;28;20036;-71
2021/08/13 03:42:59;;;;;;;26.85;22.05;;;15.70;99.90;;;;;;5065921;28;20051;-72
2021/08/13 03:45:25;;;;;;;26.35;21.95;;;15.70;99.90;;;;;;5067136;28;20060;-71
2021/08/13 03:47:51;;;;;;;25.33;19.85;;;15.70;99.90;;;;;;5058431;28;20650;-72
2021/08/13 03:50:17;;;;;;;26.38;22.42;;;15.70;99.90;;;;;;5048721;28;20451;-72
2021/08/13 03:52:43;;;;;;;23.83;20.60;;;15.80;99.90;;;;;;5075428;28;20059;-72
2021/08/13 03:55:13;;;;;;;24.10;20.27;;;15.80;99.90;;;;;;5078683;28;20036;-70
2021/08/13 03:57:42;;;;;;;22.05;19.67;;;15.80;99.90;;;;;;5074785;28;20032;-71
2021/08/13 04:00:12;;;;;;;21.50;19.15;;;15.80;99.90;;;;;;5078811;28;20047;-72
2021/08/13 04:02:38;;;;;;;26.77;22.38;;;15.80;99.90;;;;;;5080495;28;20064;-71
2021/08/13 04:05:05;;;;;;;27.67;23.52;;;15.80;99.90;;;;;;5080353;28;20676;-72
2021/08/13 04:07:31;;;;;;;25.10;20.90;;;15.80;99.90;;;;;;5079300;28;20048;-71
2021/08/13 04:10:00;;;;;;;26.27;22.58;;;15.80;99.90;;;;;;5073832;28;20036;-70
2021/08/13 04:12:26;;;;;;;23.80;21.17;;;15.80;99.90;;;;;;5066224;28;20043;-70
2021/08/13 04:14:52;;;;;;;34.20;24.77;;;15.80;99.90;;;;;;5065633;28;20039;-71
2021/08/13 04:17:18;;;;;;;32.10;24.35;;;15.70;99.90;;;;;;5071326;28;20580;-71
2021/08/13 04:19:44;;;;;;;30.40;24.50;;;15.70;99.90;;;;;;5067027;28;20043;-71
2021/08/13 04:22:10;;;;;;;21.98;19.67;;;15.70;99.90;;;;;;5067462;28;20040;-70
2021/08/13 04:24:37;;;;;;;21.25;19.05;;;15.60;99.90;;;;;;5070285;28;20151;-70
2021/08/13 04:27:06;;;;;;;21.58;19.38;;;15.60;99.90;;;;;;5066582;28;20037;-70
2021/08/13 04:29:32;;;;;;;20.42;18.33;;;15.60;99.90;;;;;;5070256;28;20452;-70
2021/08/13 04:31:58;;;;;;;17.80;15.90;;;15.60;99.90;;;;;;5072672;28;20451;-70
2021/08/13 04:34:23;;;;;;;18.83;16.92;;;15.50;99.90;;;;;;5080393;28;20044;-70
2021/08/13 04:36:49;;;;;;;19.13;17.13;;;15.50;99.90;;;;;;5068095;28;20056;-70
2021/08/13 04:39:15;;;;;;;15.73;14.07;;;15.50;99.90;;;;;;5049397;28;20491;-72
2021/08/13 04:41:41;;;;;;;17.73;15.90;;;15.40;99.90;;;;;;5048265;28;20452;-71
2021/08/13 04:44:08;;;;;;;19.83;17.73;;;15.50;99.90;;;;;;5079252;28;20036;-71
2021/08/13 04:46:35;;;;;;;18.45;16.63;;;15.40;99.90;;;;;;5057492;28;20116;-71
2021/08/13 04:49:04;;;;;;;19.92;17.15;;;15.40;99.90;;;;;;5072310;28;20119;-72
2021/08/13 04:51:30;;;;;;;16.90;15.20;;;15.40;99.90;;;;;;5076735;28;20048;-72
2021/08/13 04:53:56;;;;;;;29.88;23.50;;;15.40;99.90;;;;;;5082381;28;20516;-72
2021/08/13 04:56:22;;;;;;;21.42;16.58;;;15.40;99.90;;;;;;5059098;28;20063;-72
2021/08/13 04:58:48;;;;;;;22.85;17.20;;;15.50;99.90;;;;;;5077473;28;20042;-72
2021/08/13 05:01:15;;;;;;;17.55;15.68;;;15.50;99.90;;;;;;5056607;28;20131;-72
2021/08/13 05:03:42;;;;;;;18.88;16.88;;;15.60;99.90;;;;;;5078128;28;20051;-72
2021/08/13 05:06:08;;;;;;;27.02;22.15;;;15.60;99.90;;;;;;5072803;28;20044;-71
2021/08/13 05:08:41;;;;;;;26.15;22.75;;;15.60;99.90;;;;;;5073655;28;20036;-72
2021/08/13 05:11:07;;;;;;;26.13;23.13;;;15.70;99.90;;;;;;5052557;28;20046;-71
2021/08/13 05:13:32;;;;;;;30.88;24.70;;;15.80;99.90;;;;;;5074519;28;20045;-71
2021/08/13 05:15:58;;;;;;;27.95;22.95;;;15.80;99.90;;;;;;5082045;28;20746;-72
2021/08/13 05:18:26;;;;;;;27.88;23.02;;;15.90;99.90;;;;;;5066955;28;20040;-72
2021/08/13 05:20:54;;;;;;;25.35;21.40;;;16.00;99.90;;;;;;5076868;28;20062;-71
2021/08/13 05:23:21;;;;;;;26.98;22.77;;;16.00;99.90;;;;;;5067037;28;20437;-71
2021/08/13 05:25:47;;;;;;;29.98;25.08;;;16.10;99.90;;;;;;5072329;28;20058;-72
2021/08/13 05:28:33;;;;;;;28.60;24.02;;;16.10;99.90;;;;;;5046548;28;20132;-71
2021/08/13 05:30:59;;;;;;;23.90;21.10;;;16.30;99.90;;;;;;5074071;28;20044;-71
2021/08/13 05:33:27;;;;;;;28.80;22.77;;;16.30;99.90;;;;;;5072381;28;20430;-71
2021/08/13 05:35:53;;;;;;;26.65;21.55;;;16.40;99.90;;;;;;5052308;28;20052;-71
2021/08/13 05:38:19;;;;;;;25.65;21.40;;;16.40;99.90;;;;;;5073912;28;20040;-72
2021/08/13 05:40:46;;;;;;;27.20;22.25;;;16.50;99.90;;;;;;5060880;28;20114;-71
2021/08/13 05:43:12;;;;;;;26.75;21.90;;;16.60;99.90;;;;;;5067919;28;20064;-72
2021/08/13 05:45:41;;;;;;;26.38;21.73;;;16.60;99.90;;;;;;5045376;28;21321;-71
2021/08/13 05:48:07;;;;;;;30.50;24.95;;;16.70;99.90;;;;;;5081630;28;20131;-72
2021/08/13 05:50:33;;;;;;;28.25;23.30;;;16.70;99.90;;;;;;5055925;28;20074;-72
2021/08/13 05:52:59;;;;;;;29.30;25.60;;;16.70;99.90;;;;;;5078759;28;20048;-72
2021/08/13 05:55:25;;;;;;;27.40;23.08;;;16.80;99.90;;;;;;5063582;28;20085;-71
2021/08/13 05:57:51;;;;;;;29.15;23.58;;;16.90;99.90;;;;;;5060252;28;20041;-72
2021/08/13 06:00:17;;;;;;;31.38;25.95;;;16.90;99.90;;;;;;5066611;28;20071;-72
2021/08/13 06:02:51;;;;;;;30.05;24.25;;;17.00;99.90;;;;;;5083235;28;20054;-72
2021/08/13 06:05:17;;;;;;;27.17;23.85;;;17.10;99.90;;;;;;5078161;28;20127;-72
2021/08/13 06:07:43;;;;;;;30.60;26.33;;;17.20;99.90;;;;;;5075452;28;20044;-72
2021/08/13 06:10:09;;;;;;;33.65;28.85;;;17.30;99.90;;;;;;5046735;28;20165;-72
2021/08/13 06:12:35;;;;;;;27.83;23.50;;;17.50;99.90;;;;;;5080265;28;20068;-71
2021/08/13 06:15:01;;;;;;;32.53;27.25;;;17.50;99.90;;;;;;5061434;28;20098;-70
2021/08/13 06:17:27;;;;;;;32.05;26.20;;;17.70;99.90;;;;;;5080545;28;20486;-70
2021/08/13 06:19:53;;;;;;;31.38;26.45;;;17.70;99.90;;;;;;5075197;28;20059;-70
2021/08/13 06:22:19;;;;;;;28.83;24.70;;;17.80;99.90;;;;;;5068371;28;20043;-70
2021/08/13 06:24:45;;;;;;;30.67;26.20;;;17.90;99.90;;;;;;5070651;28;20045;-70
2021/08/13 06:27:11;;;;;;;28.10;24.50;;;17.90;99.90;;;;;;5063876;28;20117;-70
2021/08/13 06:29:37;;;;;;;32.17;26.60;;;18.00;99.90;;;;;;5082525;28;20040;-70
2021/08/13 06:32:03;;;;;;;28.67;25.63;;;18.00;99.90;;;;;;5073306;28;20047;-70
2021/08/13 06:34:29;;;;;;;29.00;23.85;;;18.10;99.90;;;;;;5069566;28;20090;-70
2021/08/13 06:36:58;;;;;;;29.30;24.90;;;18.20;99.90;;;;;;5076779;28;20066;-70
2021/08/13 06:39:24;;;;;;;34.05;27.73;;;18.20;99.90;;;;;;5056319;28;20035;-70
2021/08/13 06:41:50;;;;;;;31.98;25.52;;;18.30;99.90;;;;;;5080406;28;20044;-71
2021/08/13 06:44:16;;;;;;;28.42;25.27;;;18.30;99.90;;;;;;5081119;28;20058;-71
2021/08/13 06:46:42;;;;;;;36.78;28.45;;;18.40;99.90;;;;;;5049974;28;20041;-71
2021/08/13 06:49:11;;;;;;;36.83;29.98;;;18.40;99.90;;;;;;5077103;28;20047;-72
2021/08/13 06:51:37;;;;;;;30.45;26.15;;;18.50;99.90;;;;;;5088274;28;20523;-70
2021/08/13 06:54:03;;;;;;;36.67;27.92;;;18.50;99.90;;;;;;5069586;28;20031;-71
2021/08/13 06:56:29;;;;;;;36.33;28.30;;;18.70;99.90;;;;;;5082257;28;20040;-70
2021/08/13 06:59:01;;;;;;;35.95;26.83;;;18.70;99.90;;;;;;5085954;28;20051;-70
2021/08/13 07:01:27;;;;;;;34.90;28.05;;;18.80;99.90;;;;;;5073203;28;20097;-71
2021/08/13 07:03:53;;;;;;;30.15;24.98;;;18.90;99.90;;;;;;5077777;28;20048;-71
2021/08/13 07:06:19;;;;;;;30.48;24.55;;;18.90;99.90;;;;;;5064304;28;20040;-73
2021/08/13 07:08:45;;;;;;;32.50;25.42;;;18.90;99.90;;;;;;5066076;28;20070;-73
2021/08/13 07:11:14;;;;;;;28.58;23.48;;;18.90;99.90;;;;;;5066295;28;20714;-74
2021/08/13 07:13:39;;;;;;;31.33;25.35;;;19.00;99.90;;;;;;5069231;28;20062;-72
2021/08/13 07:16:05;;;;;;;31.98;23.88;;;19.10;99.90;;;;;;5080598;28;20474;-74
2021/08/13 07:18:32;;;;;;;28.67;23.65;;;19.30;99.90;;;;;;5044563;28;20907;-74
2021/08/13 07:20:58;;;;;;;28.80;22.25;;;19.30;99.90;;;;;;5075786;28;20100;-74
2021/08/13 07:23:24;;;;;;;26.33;22.45;;;19.50;99.90;;;;;;5076664;28;20071;-76
2021/08/13 07:25:50;;;;;;;24.30;20.48;;;19.50;99.90;;;;;;5061448;28;20463;-73
2021/08/13 07:28:15;;;;;;;22.80;19.40;;;19.50;99.90;;;;;;5075249;28;20093;-74
2021/08/13 07:30:41;;;;;;;25.08;21.08;;;19.50;99.90;;;;;;5077923;28;20048;-70
2021/08/13 07:33:07;;;;;;;25.23;20.45;;;19.60;99.90;;;;;;5062103;28;20040;-71
2021/08/13 07:35:33;;;;;;;23.10;18.92;;;19.60;99.90;;;;;;5081158;28;20066;-74
2021/08/13 07:37:59;;;;;;;25.00;18.88;;;19.70;99.90;;;;;;5073209;28;20043;-71
2021/08/13 07:40:27;;;;;;;24.08;19.25;;;19.70;99.90;;;;;;5081429;28;20028;-71
2021/08/13 07:42:54;;;;;;;25.02;19.63;;;19.60;99.90;;;;;;5078462;28;20043;-73
2021/08/13 07:45:21;;;;;;;20.92;18.25;;;19.70;99.90;;;;;;5053223;28;20737;-71
2021/08/13 07:47:48;;;;;;;22.05;17.67;;;19.70;99.90;;;;;;5067221;28;20092;-72
2021/08/13 07:50:13;;;;;;;23.27;17.98;;;19.70;99.90;;;;;;5067073;28;20038;-71
2021/08/13 07:52:39;;;;;;;20.25;17.30;;;19.80;99.90;;;;;;5071151;28;20035;-72
2021/08/13 07:55:06;;;;;;;19.40;16.38;;;19.80;99.90;;;;;;5052008;28;21508;-71
2021/08/13 07:57:32;;;;;;;20.85;17.88;;;19.80;99.90;;;;;;5068591;28;20039;-72
2021/08/13 07:59:58;;;;;;;20.05;16.75;;;19.90;99.90;;;;;;5071069;28;20504;-72
2021/08/13 08:02:24;;;;;;;23.40;18.10;;;19.90;99.90;;;;;;5065802;28;20111;-72
2021/08/13 08:04:50;;;;;;;19.10;17.05;;;19.90;99.90;;;;;;5071508;28;20105;-72
2021/08/13 08:07:16;;;;;;;21.23;17.50;;;20.00;99.90;;;;;;5059473;28;20048;-71
2021/08/13 08:09:42;;;;;;;20.10;15.93;;;20.00;99.90;;;;;;5070789;28;20083;-72
2021/08/13 08:12:11;;;;;;;15.18;13.32;;;20.00;99.90;;;;;;5074597;28;20032;-72
2021/08/13 08:14:37;;;;;;;18.38;14.20;;;20.10;99.90;;;;;;5077915;28;20753;-72
2021/08/13 08:17:03;;;;;;;16.80;13.65;;;20.10;99.60;;;;;;5076072;28;20073;-72
2021/08/13 08:19:29;;;;;;;14.80;13.20;;;20.10;99.30;;;;;;5062603;28;20526;-72
2021/08/13 08:21:55;;;;;;;15.23;12.38;;;20.20;99.40;;;;;;5075481;28;20040;-72
2021/08/13 08:24:22;;;;;;;16.02;12.85;;;20.20;99.40;;;;;;5062176;28;20032;-72
2021/08/13 08:26:48;;;;;;;14.75;11.68;;;20.30;98.80;;;;;;5039838;28;20557;-72
2021/08/13 08:29:14;;;;;;;14.23;12.40;;;20.30;98.60;;;;;;5060448;28;20033;-72
2021/08/13 08:31:40;;;;;;;12.95;11.45;;;20.50;98.70;;;;;;5062242;28;20040;-72
2021/08/13 08:34:06;;;;;;;14.32;11.57;;;20.50;98.50;;;;;;5074666;28;20127;-72
2021/08/13 08:36:32;;;;;;;13.52;11.00;;;20.60;98.40;;;;;;5067446;28;20173;-71
2021/08/13 08:38:58;;;;;;;13.50;11.63;;;20.70;98.40;;;;;;5069686;28;20078;-71
2021/08/13 08:41:25;;;;;;;16.25;10.98;;;20.70;98.10;;;;;;5073317;28;20562;-71
2021/08/13 08:43:52;;;;;;;13.30;10.90;;;20.80;98.00;;;;;;5074552;28;20041;-72
2021/08/13 08:46:21;;;;;;;17.20;11.07;;;20.80;97.70;;;;;;5077474;28;20032;-72
2021/08/13 08:48:53;;;;;;;14.25;11.07;;;20.80;97.80;;;;;;5068481;28;20051;-72
2021/08/13 08:51:20;;;;;;;14.82;12.48;;;20.90;97.80;;;;;;5078481;28;20040;-72
2021/08/13 08:53:50;;;;;;;16.05;12.57;;;21.00;97.80;;;;;;5063701;28;20045;-72
2021/08/13 08:56:18;;;;;;;13.30;11.73;;;21.00;97.80;;;;;;5071279;28;20036;-72
2021/08/13 08:58:46;;;;;;;13.70;11.90;;;21.10;98.00;;;;;;5081958;28;20046;-72
2021/08/13 09:01:13;;;;;;;13.68;11.10;;;21.20;97.60;;;;;;5073583;28;20040;-72
2021/08/13 09:03:44;;;;;;;15.02;12.52;;;21.20;97.10;;;;;;5076578;28;20449;-72
2021/08/13 09:06:11;;;;;;;13.85;11.07;;;21.30;97.00;;;;;;5067594;28;20060;-71
2021/08/13 09:08:41;;;;;;;13.60;11.35;;;21.40;97.20;;;;;;5069330;28;20032;-72
2021/08/13 09:11:08;;;;;;;13.48;10.45;;;21.60;96.80;;;;;;5076517;28;20123;-72
2021/08/13 09:14:10;;;;;;;12.57;10.80;;;21.50;96.70;;;;;;5062383;28;20051;-73
2021/08/13 09:16:36;;;;;;;14.15;12.65;;;21.40;96.30;;;;;;5063930;28;20040;-72
2021/08/13 09:19:08;;;;;;;12.38;11.07;;;21.20;96.50;;;;;;5077662;28;20051;-72
2021/08/13 09:21:35;;;;;;;12.10;10.90;;;21.20;96.90;;;;;;5078142;28;20058;-72
2021/08/13 09:24:13;;;;;;;14.27;10.40;;;21.20;96.80;;;;;;5083074;28;20051;-72
2021/08/13 09:26:44;;;;;;;14.30;9.82;;;21.10;97.00;;;;;;5084481;28;20097;-72
2021/08/13 09:29:12;;;;;;;11.45;10.20;;;21.00;97.00;;;;;;5084145;28;20047;-72
2021/08/13 09:31:43;;;;;;;13.20;9.05;;;21.00;97.20;;;;;;5063599;28;20059;-72
2021/08/13 09:34:13;;;;;;;14.55;10.55;;;20.90;97.60;;;;;;5063444;28;20040;-73
2021/08/13 09:36:59;;;;;;;10.75;9.38;;;21.00;97.90;;;;;;5075593;28;20044;-72
2021/08/13 09:39:30;;;;;;;12.27;8.73;;;21.10;98.20;;;;;;5080200;28;21418;-72
2021/08/13 09:41:58;;;;;;;10.90;8.20;;;21.20;98.30;;;;;;5078640;28;20040;-74
2021/08/13 09:44:24;;;;;;;11.43;8.98;;;21.40;97.70;;;;;;5085600;28;20047;-72
2021/08/13 09:47:01;;;;;;;12.82;8.95;;;21.30;96.90;;;;;;5076608;28;20044;-72
2021/08/13 09:49:31;;;;;;;10.52;7.28;;;21.20;96.90;;;;;;5076276;28;20074;-72
2021/08/13 09:52:10;;;;;;;10.60;7.32;;;21.10;97.30;;;;;;5077747;28;20090;-72
2021/08/13 09:54:37;;;;;;;9.02;6.82;;;21.00;97.60;;;;;;5059735;28;20052;-73
2021/08/13 09:57:11;;;;;;;10.38;7.13;;;21.10;97.50;;;;;;5081529;28;20127;-73
2021/08/13 10:00:05;;;;;;;9.23;6.45;;;21.10;96.70;;;;;;5076653;28;20518;-73
2021/08/13 10:02:35;;;;;;;9.43;6.00;;;21.10;96.40;;;;;;5079102;28;20040;-72
2021/08/13 10:05:15;;;;;;;;;;;21.00;97.00;;;;;;5072175;28;20503;-72
2021/08/13 10:07:59;;;;;;;8.15;5.93;;;21.00;97.10;;;;;;5075840;28;19920;-72
2021/08/13 10:10:29;;;;;;;7.40;5.35;;;21.00;96.20;;;;;;5082652;28;20085;-72
2021/08/13 10:12:56;;;;;;;9.82;5.68;;;21.00;96.30;;;;;;5081807;28;20055;-73
2021/08/13 10:15:30;;;;;;;8.82;5.82;;;21.00;96.50;;;;;;5077552;28;20047;-72
2021/08/13 10:17:57;;;;;;;7.93;5.13;;;21.00;96.30;;;;;;5080346;28;20036;-73
2021/08/13 10:20:29;;;;;;;6.63;5.03;;;21.10;96.00;;;;;;5049827;28;20041;-72
2021/08/13 10:22:55;;;;;;;10.20;5.00;;;21.10;95.50;;;;;;5085739;28;20039;-72
2021/08/13 10:25:24;;;;;;;8.70;4.95;;;21.10;95.30;;;;;;5077133;28;20075;-73
2021/08/13 10:27:50;;;;;;;9.27;5.50;;;21.10;94.40;;;;;;5079341;28;20036;-73
2021/08/13 10:30:17;;;;;;;10.07;5.15;;;21.10;94.20;;;;;;5073460;28;20036;-73
2021/08/13 10:32:45;;;;;;;9.18;4.95;;;21.10;94.50;;;;;;5077106;28;20067;-72
2021/08/13 10:35:13;;;;;;;11.80;5.28;;;21.20;94.30;;;;;;5076177;28;20521;-72
2021/08/13 10:37:41;;;;;;;8.25;4.90;;;21.40;93.90;;;;;;5072589;28;20040;-72
2021/08/13 10:40:08;;;;;;;10.20;5.30;;;21.40;92.90;;;;;;5079030;28;20094;-72
2021/08/13 10:42:38;;;;;;;8.38;5.28;;;21.50;91.80;;;;;;5080891;28;20044;-71
2021/08/13 10:45:09;;;;;;;9.77;5.20;;;21.50;92.20;;;;;;5077351;28;20052;-72
2021/08/13 10:48:04;;;;;;;9.57;4.85;;;21.70;92.50;;;;;;5084687;28;20580;-71
2021/08/13 10:50:31;;;;;;;9.18;5.20;;;21.90;91.20;;;;;;5072877;28;20550;-72
2021/08/13 10:52:57;;;;;;;8.82;5.07;;;21.80;90.10;;;;;;5079258;28;20060;-72
2021/08/13 10:55:47;;;;;;;8.35;4.72;;;21.80;90.30;;;;;;5080874;28;20071;-72
2021/08/13 10:58:33;;;;;;;8.88;4.97;;;21.70;90.00;;;;;;5067366;28;20071;-71
2021/08/13 11:00:59;;;;;;;8.05;5.13;;;21.60;90.20;;;;;;5070080;28;20129;-71
2021/08/13 11:03:25;;;;;;;9.02;5.22;;;21.50;90.10;;;;;;5076788;28;20770;-72
2021/08/13 11:05:56;;;;;;;10.07;5.28;;;21.50;90.40;;;;;;5066930;28;20043;-72
2021/08/13 11:08:41;;;;;;;8.07;5.38;;;21.50;90.90;;;;;;5063315;28;20487;-72
2021/08/13 11:11:14;;;;;;;7.82;5.15;;;21.50;92.30;;;;;;5073211;28;20036;-73
2021/08/13 11:13:42;;;;;;;10.05;5.47;;;21.50;91.90;;;;;;5068532;28;20043;-72
2021/08/13 11:16:29;;;;;;;9.43;5.32;;;21.60;92.70;;;;;;5079812;28;20043;-71
2021/08/13 11:19:03;;;;;;;8.10;5.20;;;21.70;92.10;;;;;;5079770;28;20037;-72
2021/08/13 11:21:39;;;;;;;9.15;5.57;;;21.60;92.10;;;;;;5071829;28;20180;-72
2021/08/13 11:24:06;;;;;;;10.05;5.60;;;21.60;91.90;;;;;;5072621;28;20059;-72
2021/08/13 11:26:50;;;;;;;11.55;5.47;;;21.50;91.60;;;;;;5077733;28;20044;-73
2021/08/13 11:29:28;;;;;;;8.48;5.38;;;21.40;92.20;;;;;;5077777;28;20043;-72
2021/08/13 11:32:16;;;;;;;9.30;5.45;;;21.40;92.00;;;;;;5069260;28;20490;-72
2021/08/13 11:34:45;;;;;;;8.77;5.35;;;21.50;92.00;;;;;;5074957;28;20040;-72
2021/08/13 11:37:44;;;;;;;7.07;4.72;;;21.90;92.20;;;;;;5076635;28;20052;-73
2021/08/13 11:40:13;;;;;;;6.85;4.68;;;22.30;91.80;;;;;;5075381;28;20036;-72
2021/08/13 11:43:11;;;;;;;8.02;3.92;;;22.60;91.40;;;;;;5079092;28;20564;-73
2021/08/13 11:45:42;;;;;;;10.48;4.85;;;23.00;91.00;;;;;;5068844;28;20600;-72
2021/08/13 11:48:10;;;;;;;10.25;3.97;;;23.10;90.20;;;;;;5064978;28;20040;-72
2021/08/13 11:50:37;;;;;;;9.95;3.20;;;23.10;88.70;;;;;;5072027;28;20040;-73
2021/08/13 11:53:05;;;;;;;6.83;3.00;;;23.00;86.20;;;;;;5075527;28;20131;-72
2021/08/13 11:55:33;;;;;;;8.25;3.38;;;22.80;84.20;;;;;;5065352;28;20856;-72
2021/08/13 11:58:04;;;;;;;5.68;2.70;;;22.60;85.10;;;;;;5069780;28;20040;-72
2021/08/13 12:00:33;;;;;;;5.70;2.70;;;22.40;83.40;;;;;;5071950;28;20126;-72
2021/08/13 12:03:06;;;;;;;10.68;2.90;;;22.30;83.80;;;;;;5069728;28;20048;-72
2021/08/13 12:05:36;;;;;;;8.60;3.35;;;22.20;84.90;;;;;;5075614;28;20051;-72
2021/08/13 12:08:09;;;;;;;8.38;2.92;;;22.20;83.90;;;;;;5068035;28;20047;-72
2021/08/13 12:10:36;;;;;;;11.52;3.00;;;22.20;84.50;;;;;;5081516;28;20060;-74
2021/08/13 12:13:09;;;;;;;6.78;3.20;;;22.20;85.80;;;;;;5060641;28;20036;-74
2021/08/13 12:15:38;;;;;;;8.63;3.08;;;22.30;84.50;;;;;;5050313;28;20470;-73
2021/08/13 12:18:11;;;;;;;8.02;3.10;;;22.20;84.10;;;;;;5081596;28;20050;-74
2021/08/13 12:20:38;;;;;;;8.82;3.28;;;22.20;83.90;;;;;;5041520;28;20044;-74
2021/08/13 12:23:13;;;;;;;8.48;3.25;;;22.10;84.40;;;;;;5068256;28;20059;-75
2021/08/13 12:25:44;;;;;;;10.13;2.83;;;22.00;85.00;;;;;;5068935;28;20036;-74
2021/08/13 12:28:12;;;;;;;9.02;3.20;;;21.90;86.20;;;;;;5074495;28;20036;-74
2021/08/13 12:30:40;;;;;;;8.13;3.20;;;21.80;85.20;;;;;;5061971;28;20119;-75
2021/08/13 12:33:19;;;;;;;16.88;3.28;;;21.80;84.50;;;;;;5056370;28;20040;-75
2021/08/13 12:35:47;;;;;;;11.27;3.00;;;21.70;86.70;;;;;;5066668;28;20044;-74
2021/08/13 12:38:14;;;;;;;8.75;3.38;;;21.70;86.00;;;;;;5077475;28;20513;-74
2021/08/13 12:40:48;;;;;;;10.43;3.33;;;21.60;86.50;;;;;;5060606;28;20039;-74
2021/08/13 12:43:16;;;;;;;11.38;3.42;;;21.70;87.90;;;;;;5058448;28;20041;-74